• Join FlightAware (Why Join?)
  • Login
  • US Flag 
09:42PM EDT


 

Airport Tracker/Info


-or-


 

Live Flight TrackerFlight Track Log ✈ CSN6865 ✈ 12-Feb-2014 ✈ ZWWW / URC - ZWAK / AKU

Flight Track Log - Related Links

Times and Time Zones

All times are in EST time to prevent confusion due to time zone crossing. See the CSN6865 flight status page for this flight to view local times or setup timezone preferences in your user account.

Time Position Orientation Groundspeed Altitude Reporting Facility
EST Latitude Longitude Course Direction KTS MPH feet Rate Location/Type
03:46AM 43.8726 87.3673 246° West  Level Estimated
03:47AM 43.8379 87.2604 246° West  Level Estimated
03:48AM 43.8032 87.1537 246° West  Level Estimated
03:49AM 43.7683 87.0471 246° West  Level Estimated
03:50AM 43.7307 86.9325 246° West  Level Estimated
03:51AM 43.6929 86.8180 246° West  Level Estimated
03:52AM 43.6550 86.7036 245° Southwest  Level Estimated
03:53AM 43.6171 86.5894 245° Southwest  Level Estimated
03:54AM 43.5790 86.4753 245° Southwest  Level Estimated
03:55AM 43.5408 86.3614 245° Southwest  Level Estimated
03:56AM 43.5024 86.2476 245° Southwest  Level Estimated
03:57AM 43.4640 86.1340 245° Southwest  Level Estimated
03:58AM 43.4255 86.0205 245° Southwest  Level Estimated
03:59AM 43.3868 85.9071 245° Southwest  Level Estimated
04:00AM 43.3480 85.7939 245° Southwest  Level Estimated
04:01AM 43.3092 85.6808 245° Southwest  Level Estimated
04:02AM 43.2702 85.5679 245° Southwest  Level Estimated
04:03AM 43.2311 85.4551 245° Southwest  Level Estimated
04:04AM 43.1919 85.3425 245° Southwest  Level Estimated
04:05AM 43.1525 85.2300 244° Southwest  Level Estimated
04:06AM 43.1131 85.1177 244° Southwest  Level Estimated
04:07AM 43.0736 85.0055 244° Southwest  Level Estimated
04:08AM 43.0339 84.8935 244° Southwest  Level Estimated
04:09AM 42.9942 84.7816 244° Southwest  Level Estimated
04:10AM 42.9543 84.6698 244° Southwest  Level Estimated
04:11AM 42.9143 84.5582 244° Southwest  Level Estimated
04:12AM 42.8742 84.4467 244° Southwest  Level Estimated
04:13AM 42.8340 84.3354 244° Southwest  Level Estimated
04:14AM 42.7937 84.2242 244° Southwest  Level Estimated
04:15AM 42.7533 84.1132 244° Southwest  Level Estimated
04:16AM 42.7128 84.0023 244° Southwest  Level Estimated
04:17AM 42.6722 83.8916 244° Southwest  Level Estimated
04:18AM 42.6314 83.7810 243° Southwest  Level Estimated
04:19AM 42.5906 83.6705 243° Southwest  Level Estimated
04:20AM 42.5496 83.5602 243° Southwest  Level Estimated
04:21AM 42.5086 83.4500 243° Southwest  Level Estimated
04:22AM 42.4674 83.3400 243° Southwest  Level Estimated
04:23AM 42.4262 83.2301 243° Southwest  Level Estimated
04:24AM 42.3848 83.1204 243° Southwest  Level Estimated
04:25AM 42.3433 83.0108 243° Southwest  Level Estimated
04:26AM 42.3018 82.9014 243° Southwest  Level Estimated
04:27AM 42.2601 82.7921 243° Southwest  Level Estimated
04:28AM 42.2183 82.6829 243° Southwest  Level Estimated
04:29AM 42.1764 82.5739 243° Southwest  Level Estimated
04:30AM 42.1344 82.4651 243° Southwest  Level Estimated
04:31AM 42.0924 82.3564 242° Southwest  Level Estimated
04:32AM 42.0502 82.2478 242° Southwest  Level Estimated
04:33AM 42.0079 82.1394 242° Southwest  Level Estimated
04:34AM 41.9655 82.0311 242° Southwest  Level Estimated
04:35AM 41.9230 81.9229 242° Southwest  Level Estimated
04:36AM 41.8804 81.8149 242° Southwest  Level Estimated
04:37AM 41.8377 81.7071 242° Southwest  Level Estimated
04:38AM 41.7949 81.5994 242° Southwest  Level Estimated
04:39AM 41.7520 81.4918 242° Southwest  Level Estimated
04:40AM 41.7090 81.3844 242° Southwest  Level Estimated
04:41AM 41.6659 81.2771 242° Southwest  Level Estimated
04:42AM 41.6227 81.1700 242° Southwest  Level Estimated
04:43AM 41.5794 81.0630 242° Southwest  Level Estimated
04:44AM 41.5360 80.9561 242° Southwest  Level Estimated
04:45AM 41.4925 80.8494 241° Southwest  Level Estimated
04:46AM 41.4489 80.7429 241° Southwest  Level Estimated
04:47AM 41.4052 80.6365 241° Southwest  Level Estimated
04:48AM 41.3614 80.5302 241° Southwest  Level Estimated
04:49AM 41.3175 80.4240 241° Southwest  Level Estimated
04:50AM 41.2735 80.3181 241° Southwest  Level Estimated
04:51AM 41.2625 80.2917 241° Southwest  Level Estimated
04:52AM 41.2625 80.2917 270° West  Level Estimated
04:53AM 41.2625 80.2917 270° West  Level Estimated
04:54AM 41.2625 80.2917 270° West  Level Estimated